Hlavní strana
METAR-TAF:

METAR-TAF

Letiště :

Christchurch, Nový Zéland

zeměpisná šířka: 43-29S, zeměpisná délka: 172-33E, výška: 38 m

Aktuální stav počasí

Zpráva byla vytvořena před 27 minutami, v 13:00 UTC
Jihozápadní vítr 4 kt
Teplota 1°C
Vlhkost vzduchu 86%
Tlak 995 hPa
Viditelnost 10 km a více

METAR: NZCH 251300Z AUTO 22004KT 9999 NCD 01/M01 Q0995 NOSIG

Čas: 01:27 (13:27 UTC)

Předpověď počasí

Zpráva byla vytvořena před 2 hodinami a 27 minutami, v 11:00 UTC
Předpověď platná od 25 v 12 UTC do 26 v 12 UTC
Severozápadní vítr 5 kt
Viditelnost 10 km a více
Polojasno ve výšce 5000 ft
Změna
od 25 v 20 UTC do 25 v 22 UTC
Jihozápadní vítr 15 kt s nárazy do 25 kt
Změna
od 26 v 04 UTC do 26 v 06 UTC
Jižní vítr 10 kt
Změna
od 26 v 06 UTC do 26 v 08 UTC
Západoseverozápadní vítr 5 kt

TAF: NZCH 251100Z 2512/2612 32005KT 9999 SCT050 BECMG 2520/2522 22015G25KT BECMG 2604/2606 18010KT BECMG 2606/2608 30005KT

Stav a předpovědi počasí z více než 4 000 letišť (zprávy METAR a TAF).

Červené a žluté tečky na mapě představují dostupné meteorologické stanice.

Když kurzor umístíte na tečku, zobrazí se název stanice.

Pak kliknutím zobrazíte stav a předpověď počasí.

Chcete-li změnit mapu, kliknutím na zelené tlačítko se znaménkem +mapu přiblížíte, kliknutím na zelené tlačítko se znaménkem – mapu oddálíte a kliknutím na zelené šipky přejdete na sousední mapy.


METAR-TAF: